Ward, South Dakota
Current Conditions -  °F | °C
As of 2:14 AM on Tuesday 27 Jan 2015 (Local Time) from KPQN Reporting Station
Clear Clear  
Wind Chill: 30°   Ceiling: Unl
Heat Index: 30°   Visibility: 10mi
Dew Point: 28°   Wind: 0mph
Humidity: 93%   Direction: NA
Pressure: 30.04"   Gusts: NA
Location:  44.16°N, 96.46°W
Report Text: KPQN 270814Z AUTO 00000KT 10SM CLR M01/M02 A3004 RMK AO2
Loading
Personal Weather Stations






























Interactive Weather Map New forecast layout! Learn more

10-Day Weather Forecast

Advertisements
Track Severe Weather on mobile